Data for 09/15/2015

Time Sea-Level Adjusted Pressure Absolute Pressure Temperature Relative Humidity Dew Point   
(mb) (inHg) (mb) (inHg) (C) (F) (%) (C) (F)
00:05 1007 29.74 836 24.69 17 62.5 51 6.8 44.3
00:10 1007 29.74 836 24.69 16.9 62.4 51 6.7 44.1
00:15 1007 29.74 836 24.69 17 62.5 50 6.6 44
00:20 1007 29.74 836 24.69 17 62.5 51 6.7 44.1
00:25 1007 29.74 836 24.69 17 62.5 51 6.7 44.1
00:30 1007 29.74 836 24.69 16.9 62.5 51 6.8 44.2
00:35 1006 29.71 836 24.69 16.9 62.4 51 6.7 44.1
00:40 1007 29.74 836 24.69 16.9 62.5 51 6.8 44.2
00:45 1007 29.74 836 24.69 16.9 62.4 50 6.6 43.9
00:50 1006 29.71 836 24.69 16.9 62.5 50 6.6 43.8
00:55 1006 29.71 836 24.69 17.1 62.7 50 6.6 43.9
01:00 1006 29.71 836 24.69 16.9 62.5 50 6.6 43.9
01:05 1006 29.71 835 24.66 16.9 62.4 51 6.7 44.1
01:10 1006 29.71 835 24.66 16.8 62.2 51 6.8 44.2
01:15 1006 29.71 835 24.66 16.6 61.8 53 7.1 44.8
01:20 1006 29.71 836 24.69 16.3 61.3 54 7.1 44.9
01:25 1006 29.71 836 24.69 16 60.8 55 7.1 44.7
01:30 1006 29.71 836 24.69 16 60.9 54 6.7 44.1
01:35 1006 29.71 836 24.69 16.2 61.2 54 7.1 44.7
01:40 1007 29.74 836 24.69 16.2 61.2 55 7.4 45.3
01:45 1007 29.74 836 24.69 16.2 61.2 55 7.2 44.9
01:50 1007 29.74 836 24.69 16.5 61.8 57 8.1 46.5
01:55 1007 29.74 836 24.69 16.6 61.8 57 8.1 46.5
02:00 1007 29.74 836 24.69 16.5 61.6 59 8.4 47.1
02:05 1006 29.71 836 24.69 16.4 61.4 57 8 46.4
02:10 1006 29.71 836 24.69 16.4 61.5 59 8.6 47.4
02:15 1006 29.71 836 24.69 16.3 61.4 60 8.5 47.4
02:20 1006 29.71 836 24.69 16.2 61.1 60 8.6 47.4
02:25 1006 29.71 836 24.69 16 60.8 63 9 48.2
02:30 1006 29.71 836 24.69 15.8 60.4 65 9.4 48.8
02:35 1007 29.74 836 24.69 15.2 59.3 67 9.2 48.6
02:40 1007 29.74 836 24.69 14.2 57.5 70 8.9 48
02:45 1007 29.74 836 24.69 13.8 56.9 71 8.7 47.6
02:50 1007 29.74 836 24.69 13.7 56.7 73 9 48.2
02:55 1007 29.74 836 24.69 13.4 56.2 73 8.8 47.9
03:00 1007 29.74 836 24.69 13.1 55.6 76 9 48.2
03:05 1007 29.74 836 24.69 13.2 55.8 74 8.8 47.9
03:10 1007 29.74 836 24.69 13 55.5 76 8.9 48.1
03:15 1007 29.74 836 24.69 12.8 55.1 76 8.8 47.8
03:20 1007 29.74 836 24.69 12.8 55.1 76 8.8 47.8
03:25 1007 29.74 836 24.69 12.8 55.1 77 8.9 48
03:30 1007 29.74 836 24.69 12.7 54.9 77 8.8 47.9
03:35 1007 29.74 836 24.69 12.6 54.8 77 8.8 47.8
03:40 1007 29.74 836 24.69 12.6 54.8 77 8.7 47.7
03:45 1007 29.74 836 24.69 12.7 54.8 77 8.7 47.7
03:50 1007 29.74 836 24.69 12.6 54.7 77 8.8 47.8
03:55 1007 29.74 836 24.69 12.5 54.5 77 8.7 47.6
04:00 1006 29.71 836 24.69 12.5 54.5 77 8.6 47.5
04:05 1006 29.71 835 24.66 12.5 54.5 77 8.6 47.4
04:10 1006 29.71 835 24.66 12.5 54.5 76 8.5 47.3
04:15 1006 29.71 835 24.66 12.6 54.6 76 8.4 47.2
04:20 1006 29.71 835 24.66 12.5 54.6 76 8.4 47.2
04:25 1006 29.71 835 24.66 12.5 54.6 76 8.4 47.1
04:30 1006 29.71 835 24.66 12.6 54.8 75 8.4 47.1
04:35 1006 29.71 835 24.66 12.7 54.8 75 8.5 47.3
04:40 1006 29.71 835 24.66 12.7 54.8 75 8.4 47.1
04:45 1006 29.71 835 24.66 12.7 54.8 76 8.5 47.3
04:50 1006 29.71 835 24.66 12.5 54.6 75 8.3 47
04:55 1006 29.71 835 24.66 12.7 54.8 75 8.4 47
05:00 1006 29.71 835 24.66 12.9 55.2 73 8.1 46.7
05:05 1006 29.71 835 24.66 13.2 55.7 71 8.1 46.6
05:10 1006 29.71 835 24.66 13.3 55.9 71 8.1 46.6
05:15 1006 29.71 835 24.66 13.4 56.2 70 8.2 46.7
05:20 1006 29.71 835 24.66 13.5 56.3 71 8.3 47
05:25 1006 29.71 836 24.69 13.5 56.4 71 8.3 47
05:30 1007 29.74 836 24.69 13.6 56.5 72 8.7 47.6
05:35 1006 29.71 836 24.69 13.6 56.5 73 8.8 47.9
05:40 1006 29.71 836 24.69 13.5 56.2 74 8.9 48.1
05:45 1006 29.71 836 24.69 13.2 55.7 76 9.1 48.4
05:50 1006 29.71 835 24.66 12.6 54.7 78 8.9 47.9
05:55 1006 29.71 835 24.66 12.4 54.4 79 8.9 48.1
06:00 1006 29.71 835 24.66 12.4 54.3 78 8.6 47.6
06:05 1006 29.71 835 24.66 12.5 54.5 79 8.9 48.1
06:10 1006 29.71 835 24.66 12.5 54.4 79 9 48.2
06:15 1006 29.71 835 24.66 12.6 54.6 79 9.1 48.4
06:20 1006 29.71 835 24.66 12.7 54.9 79 9.2 48.6
06:25 1006 29.71 835 24.66 12.9 55.1 79 9.4 48.8
06:30 1006 29.71 836 24.69 12.9 55.3 78 9.3 48.7
06:35 1006 29.71 836 24.69 13 55.4 79 9.5 49
06:40 1007 29.74 836 24.69 13.1 55.6 79 9.6 49.3
06:45 1007 29.74 836 24.69 13.1 55.5 80 9.7 49.5
06:50 1007 29.74 836 24.69 13 55.3 81 9.9 49.7
06:55 1007 29.74 836 24.69 12.7 54.8 82 9.7 49.5
07:00 1007 29.74 836 24.69 12.4 54.2 84 9.8 49.6
07:05 1007 29.74 837 24.72 12 53.7 87 9.9 49.9
07:10 1008 29.77 837 24.72 11.7 53.1 89 10 50
07:15 1008 29.77 837 24.72 11.4 52.5 89 9.6 49.2
07:20 1008 29.77 837 24.72 10.5 50.8 90 8.9 48
07:25 1008 29.77 838 24.75 9.9 49.8 91 8.4 47.2
07:30 1008 29.77 838 24.75 9.7 49.4 90 8.2 46.7
07:35 1009 29.8 838 24.75 9.5 49 90 7.8 46.1
07:40 1009 29.8 838 24.75 9.3 48.8 89 7.7 45.8
07:45 1010 29.83 839 24.78 9.2 48.5 89 7.5 45.5
07:50 1010 29.83 839 24.78 9.1 48.3 89 7.4 45.3
07:55 1010 29.83 840 24.81 9 48.2 89 7.3 45.2
08:00 1011 29.85 840 24.81 9 48.2 90 7.4 45.3
08:05 1011 29.85 840 24.81 9 48.1 90 7.4 45.3
08:10 1011 29.85 840 24.81 9 48.1 90 7.4 45.3
08:15 1011 29.85 840 24.81 9 48.2 90 7.4 45.4
08:20 1011 29.85 840 24.81 8.9 48 90 7.4 45.3
08:25 1011 29.85 840 24.81 8.9 48 90 7.3 45.2
08:30 1011 29.85 840 24.81 8.9 47.9 91 7.4 45.3
08:35 1011 29.85 840 24.81 8.8 47.9 90 7.3 45.2
08:40 1011 29.85 840 24.81 8.8 47.8 90 7.3 45.1
08:45 1011 29.85 841 24.83 8.8 47.8 90 7.3 45.1
08:50 1011 29.85 841 24.83 8.9 47.9 91 7.4 45.3
08:55 1011 29.85 841 24.83 8.9 48 90 7.4 45.4
09:00 1011 29.85 841 24.83 8.9 48 89 7.3 45.1
09:05 1012 29.88 841 24.83 8.8 47.8 90 7.2 44.9
09:10 1012 29.88 841 24.83 8.7 47.7 89 7.1 44.7
09:15 1012 29.88 841 24.83 8.7 47.6 88 6.9 44.4
09:20 1012 29.88 841 24.83 8.5 47.3 89 6.8 44.2
09:25 1012 29.88 841 24.83 8.5 47.3 88 6.6 43.9
09:30 1012 29.88 841 24.83 8.5 47.2 87 6.5 43.7
09:35 1011 29.85 841 24.83 8.5 47.3 88 6.7 44
09:40 1011 29.85 840 24.81 8.5 47.2 88 6.6 43.9
09:45 1012 29.88 841 24.83 8.5 47.3 89 6.9 44.3
09:50 1012 29.88 841 24.83 8.8 47.8 87 6.7 44.1
09:55 1012 29.88 841 24.83 9 48.1 87 6.9 44.5
10:00 1012 29.88 841 24.83 9.2 48.6 84 6.7 44
10:05 1012 29.88 841 24.83 9.1 48.4 84 6.6 43.8
10:10 1012 29.88 841 24.83 9.3 48.7 85 6.9 44.5
10:15 1012 29.88 841 24.83 9.6 49.2 83 6.9 44.5
10:20 1012 29.88 841 24.83 9.8 49.6 83 7.1 44.7
10:25 1012 29.88 841 24.83 9.8 49.7 81 6.7 44.1
10:30 1012 29.88 841 24.83 9.7 49.5 83 7 44.6
10:35 1012 29.88 841 24.83 9.7 49.5 84 7.2 45
10:40 1012 29.88 841 24.83 9.6 49.3 84 7 44.6
10:45 1012 29.88 841 24.83 9.4 49 84 6.9 44.4
10:50 1012 29.88 841 24.83 9.3 48.8 86 7.1 44.8
10:55 1012 29.88 841 24.83 9.4 48.9 87 7.4 45.3
11:00 1012 29.88 841 24.83 9.5 49.1 88 7.6 45.6
11:05 1012 29.88 841 24.83 9.4 48.9 86 7.2 45
11:10 1012 29.88 841 24.83 9.3 48.8 87 7.2 45
11:15 1012 29.88 841 24.83 9.2 48.5 85 6.8 44.2
11:20 1012 29.88 841 24.83 9.3 48.7 85 7 44.6
11:25 1012 29.88 841 24.83 9.6 49.3 84 7 44.7
11:30 1012 29.88 841 24.83 10.1 50.1 81 7 44.6
11:35 1012 29.88 841 24.83 10 50 82 7.1 44.7
11:40 1012 29.88 841 24.83 10 50.1 84 7.4 45.3
11:45 1012 29.88 841 24.83 10 50.1 80 6.7 44.1
11:50 1012 29.88 841 24.83 10 49.9 81 6.9 44.5
11:55 1012 29.88 841 24.83 10.1 50.2 81 7 44.6
12:00 1012 29.88 841 24.83 10.2 50.4 83 7.5 45.4
12:05 1012 29.88 841 24.83 10.3 50.5 79 6.8 44.3
12:10 1012 29.88 841 24.83 10 50 82 7.1 44.7
12:15 1012 29.88 841 24.83 10.2 50.4 81 7.1 44.7
12:20 1012 29.88 841 24.83 10.4 50.7 77 6.6 43.8
12:25 1012 29.88 841 24.83 10.9 51.7 72 6.1 43
12:30 1012 29.88 841 24.83 11.4 52.5 73 6.7 44.1
12:35 1012 29.88 841 24.83 12.4 54.4 71 7.3 45.1
12:40 1012 29.88 841 24.83 11.6 52.9 70 6.4 43.5
12:45 1012 29.88 841 24.83 12.2 54 70 6.9 44.3
12:50 1012 29.88 841 24.83 13.2 55.7 65 6.9 44.4
12:55 1012 29.88 841 24.83 13.1 55.6 65 6.8 44.2
13:00 1012 29.88 841 24.83 13.7 56.7 65 7.2 45
13:05 1012 29.88 841 24.83 12.6 54.7 64 5.9 42.7
13:10 1012 29.88 841 24.83 12.7 54.8 62 5.5 42
13:15 1012 29.88 841 24.83 13.5 56.4 60 5.9 42.6
13:20 1012 29.88 841 24.83 14.6 58.3 54 5.4 41.8
13:25 1012 29.88 841 24.83 15.1 59.3 51 5.2 41.3
13:30 1012 29.88 841 24.83 15.7 60.2 50 5.5 41.9
13:35 1012 29.88 841 24.83 14.4 57.9 57 6 42.8
13:40 1012 29.88 841 24.83 13.9 57.1 56 5.3 41.6
13:45 1012 29.88 841 24.83 14.2 57.5 54 5.1 41.2
13:50 1012 29.88 841 24.83 14.8 58.7 53 5.4 41.6
13:55 1011 29.85 841 24.83 14.4 57.8 57 6.1 43
14:00 1011 29.85 841 24.83 13.9 56.9 58 5.9 42.6
14:05 1011 29.85 841 24.83 14.5 58.1 56 5.8 42.5
14:10 1011 29.85 840 24.81 14.7 58.4 54 5.4 41.8
14:15 1011 29.85 840 24.81 14.9 58.8 55 6 42.8
14:20 1011 29.85 840 24.81 14.5 58.2 57 6.1 43
14:25 1011 29.85 840 24.81 14.2 57.6 58 6.2 43.1
14:30 1011 29.85 840 24.81 14.4 57.9 57 6 42.8
14:35 1011 29.85 840 24.81 14.3 57.8 56 5.8 42.4
14:40 1011 29.85 840 24.81 14.8 58.6 55 6 42.8
14:45 1011 29.85 840 24.81 15.1 59.1 53 5.6 42
14:50 1011 29.85 840 24.81 15 59.1 54 5.8 42.4
14:55 1011 29.85 840 24.81 15.4 59.8 52 5.7 42.3
15:00 1011 29.85 840 24.81 15.5 60 51 5.5 42
15:05 1011 29.85 840 24.81 16.1 60.9 49 5.5 41.8
15:10 1011 29.85 840 24.81 16.4 61.5 49 5.6 42.1
15:15 1011 29.85 840 24.81 16.5 61.8 48 5.7 42.3
15:20 1011 29.85 840 24.81 16.8 62.2 49 6.1 42.9
15:25 1011 29.85 840 24.81 16.6 62 47 5.4 41.6
15:30 1011 29.85 840 24.81 16.2 61.2 49 5.7 42.3
15:35 1011 29.85 840 24.81 16 60.9 48 5.2 41.4
15:40 1011 29.85 840 24.81 15.7 60.3 49 5.1 41.3
15:45 1011 29.85 840 24.81 15.5 59.9 50 5.3 41.5
15:50 1011 29.85 840 24.81 15.4 59.8 50 5.2 41.4
15:55 1011 29.85 840 24.81 15.4 59.8 57 7.1 44.8
16:00 1011 29.85 840 24.81 15.4 59.8 59 7.4 45.4
16:05 1011 29.85 840 24.81 15.3 59.5 61 7.8 46
16:10 1011 29.85 840 24.81 14.9 58.9 67 9 48.2
16:15 1011 29.85 841 24.83 14.1 57.5 72 9.3 48.7
16:20 1011 29.85 841 24.83 13.3 55.9 73 8.7 47.6
16:25 1012 29.88 841 24.83 12.6 54.6 74 8.2 46.7
16:30 1012 29.88 841 24.83 12.2 54 77 8.3 46.9
16:35 1012 29.88 841 24.83 12 53.5 75 7.7 45.9
16:40 1012 29.88 841 24.83 11.8 53.3 75 7.5 45.6
16:45 1012 29.88 841 24.83 11.8 53.2 77 7.8 46.1
16:50 1012 29.88 841 24.83 11.7 53.1 78 8 46.4
16:55 1012 29.88 841 24.83 11.6 52.9 76 7.5 45.5
17:00 1012 29.88 841 24.83 11.5 52.8 79 8 46.5
17:05 1012 29.88 841 24.83 11.3 52.3 84 8.7 47.7
17:10 1012 29.88 841 24.83 11 51.7 84 8.4 47.2
17:15 1012 29.88 841 24.83 10.9 51.6 86 8.6 47.5
17:20 1012 29.88 841 24.83 10.9 51.6 85 8.6 47.4
17:25 1012 29.88 841 24.83 10.8 51.4 86 8.6 47.4
17:30 1012 29.88 841 24.83 10.8 51.4 85 8.4 47.1
17:35 1012 29.88 841 24.83 10.8 51.4 86 8.6 47.5
17:40 1012 29.88 841 24.83 10.9 51.6 84 8.3 47
17:45 1012 29.88 841 24.83 10.8 51.4 84 8.3 46.9
17:50 1012 29.88 841 24.83 11.1 51.9 85 8.7 47.6
17:55 1012 29.88 841 24.83 11 51.8 84 8.4 47
18:00 1012 29.88 841 24.83 10.8 51.4 84 8.1 46.7
18:05 1012 29.88 841 24.83 10.7 51.2 81 7.6 45.6
18:10 1012 29.88 841 24.83 10.8 51.5 77 7 44.7
18:15 1012 29.88 841 24.83 11 51.9 78 7.4 45.4
18:20 1012 29.88 841 24.83 11.2 52.1 74 6.7 44.1
18:25 1012 29.88 841 24.83 11.5 52.6 71 6.5 43.7
18:30 1012 29.88 841 24.83 11.7 53 72 6.7 44.1
18:35 1012 29.88 841 24.83 11.7 53 71 6.6 43.9
18:40 1012 29.88 841 24.83 11.7 53 70 6.4 43.4
18:45 1012 29.88 841 24.83 11.6 53 72 6.7 44.1
18:50 1012 29.88 841 24.83 11.6 52.9 70 6.3 43.4
18:55 1012 29.88 841 24.83 11.4 52.5 70 6.1 43.1
19:00 1012 29.88 841 24.83 11.4 52.5 70 6.2 43.2
19:05 1012 29.88 841 24.83 11.3 52.3 75 7.1 44.8
19:10 1012 29.88 841 24.83 11 51.8 78 7.3 45.1
19:15 1012 29.88 841 24.83 10.8 51.5 80 7.5 45.5
19:20 1012 29.88 841 24.83 10.8 51.5 78 7.2 44.9
19:25 1012 29.88 841 24.83 10.7 51.3 79 7.2 44.9
19:30 1012 29.88 841 24.83 10.6 51 81 7.4 45.4
19:35 1012 29.88 842 24.86 10.4 50.7 81 7.4 45.3
19:40 1013 29.91 842 24.86 10.3 50.5 82 7.3 45.1
19:45 1013 29.91 842 24.86 9.9 49.9 83 7.2 45
19:50 1013 29.91 842 24.86 9.7 49.5 84 7.1 44.8
19:55 1013 29.91 842 24.86 9.5 49.2 84 7 44.6
20:00 1013 29.91 842 24.86 9.4 48.9 86 7.1 44.8
20:05 1013 29.91 842 24.86 9.3 48.7 86 7 44.7
20:10 1013 29.91 842 24.86 9.4 48.9 85 7 44.6
20:15 1013 29.91 842 24.86 9.4 48.9 86 7.1 44.9
20:20 1013 29.91 842 24.86 9.4 48.8 86 7.2 44.9
20:25 1013 29.91 842 24.86 9.3 48.7 87 7.3 45.1
20:30 1013 29.91 842 24.86 9.2 48.5 87 7.2 45
20:35 1013 29.91 842 24.86 9.1 48.5 87 7.2 44.9
20:40 1013 29.91 842 24.86 9.2 48.5 87 7.1 44.8
20:45 1013 29.91 842 24.86 9.3 48.7 87 7.2 44.9
20:50 1013 29.91 842 24.86 9.4 48.8 86 7.1 44.8
20:55 1013 29.91 842 24.86 9.4 48.9 86 7.2 44.9
21:00 1013 29.91 842 24.86 9.3 48.7 86 7.1 44.8
21:05 1013 29.91 842 24.86 9.2 48.6 86 7 44.7
21:10 1013 29.91 842 24.86 9.3 48.7 85 6.8 44.3
21:15 1012 29.88 842 24.86 9.4 49 84 6.8 44.3
21:20 1012 29.88 842 24.86 9.5 49 84 6.9 44.3
21:25 1012 29.88 841 24.83 9.4 48.8 84 6.8 44.2
21:30 1012 29.88 841 24.83 9.3 48.7 84 6.8 44.2
21:35 1012 29.88 841 24.83 9.2 48.5 84 6.7 44
21:40 1012 29.88 841 24.83 9.1 48.3 84 6.6 43.8
21:45 1012 29.88 841 24.83 9 48.3 84 6.6 43.8
21:50 1012 29.88 841 24.83 8.9 48.1 85 6.5 43.7
21:55 1012 29.88 841 24.83 8.9 48.1 84 6.4 43.6
22:00 1012 29.88 841 24.83 8.9 48.1 84 6.4 43.5
22:05 1012 29.88 841 24.83 8.9 48 84 6.4 43.5
22:10 1012 29.88 841 24.83 9 48.1 84 6.4 43.5
22:15 1012 29.88 841 24.83 9 48.2 84 6.4 43.5
22:20 1012 29.88 841 24.83 8.9 48 83 6.1 43
22:25 1012 29.88 841 24.83 9 48.2 82 6.1 43
22:30 1012 29.88 841 24.83 9.1 48.3 82 6.2 43.1
22:35 1012 29.88 841 24.83 9.2 48.5 80 6 42.8
22:40 1012 29.88 841 24.83 9.3 48.8 81 6.2 43.2
22:45 1012 29.88 841 24.83 9.1 48.4 81 6.1 43
22:50 1012 29.88 841 24.83 8.9 47.9 82 6 42.9
22:55 1012 29.88 841 24.83 8.7 47.7 83 6 42.7
23:00 1012 29.88 841 24.83 8.7 47.6 83 5.9 42.7
23:05 1012 29.88 841 24.83 8.6 47.4 84 6 42.8
23:10 1012 29.88 841 24.83 8.4 47.1 84 5.8 42.4
23:15 1011 29.85 841 24.83 8.4 47.1 84 5.9 42.5
23:20 1011 29.85 841 24.83 8.3 46.9 84 5.8 42.5
23:25 1011 29.85 841 24.83 8.3 46.9 84 5.7 42.3
23:30 1011 29.85 841 24.83 8.4 47 84 5.9 42.6
23:35 1011 29.85 840 24.81 8.1 46.5 85 5.8 42.4
23:40 1011 29.85 840 24.81 8 46.5 84 5.6 42.1
23:45 1011 29.85 840 24.81 8 46.5 85 5.6 42.1
23:50 1011 29.85 841 24.83 8.1 46.7 84 5.7 42.2
23:55 1011 29.85 841 24.83 8.3 46.9 84 5.7 42.3
24:00 1011 29.85 840 24.81 8.4 47.1 82 5.6 42